• Join FlightAware (Why Join?)
  • Login
  • US Flag 
Rudolph Flight #1: Arrived! 
08:37AM EST


 

Airport Tracker/Info


-or-


 

Live Flight TrackerFlight Track Log ✈ JBU1781 ✈ 04-May-2013 ✈ KMCO - MYNN / NAS

Flight Track Log - Related Links

Times and Time Zones

All times are in EDT time to prevent confusion due to time zone crossing. See the JBU1781 flight status page for this flight to view local times or setup timezone preferences in your user account.

Time Position Orientation Groundspeed Altitude Reporting Facility
EDT Latitude Longitude Course Direction KTS MPH feet Rate Location/Type
02:08PM 28.4000 -81.3000 139° Southeast 181 208 2,000  Level Orlando TRACON
02:09PM 28.3500 -81.2333 130° Southeast 237 273 4,600 2,520 Climbing Orlando TRACON
02:10PM 28.2091 -81.0484 134° Southeast  Level Estimated
02:10PM 28.3333 -81.1667 106° East 299 344 6,900  Level Orlando TRACON
02:11PM 28.1356 -80.9617 139° Southeast  Level Estimated
02:11PM 28.2850 -81.0625 118° Southeast 309 356 9,800  Level Miami Center
02:12PM 28.0620 -80.8752 139° Southeast  Level Estimated
02:12PM 28.2328 -80.9944 131° Southeast 314 361 11,500  Level Miami Center
02:13PM 27.9883 -80.7888 139° Southeast  Level Estimated
02:13PM 28.1433 -80.9089 140° Southeast 364 419 14,100  Level Miami Center
02:14PM 27.9215 -80.7105 139° Southeast  Level Estimated
02:14PM 28.0853 -80.8244 128° Southeast 376 433 16,200  Level Miami Center
02:15PM 28.0169 -80.7233 127° Southeast 396 456 19,000 2,340 Climbing Miami Center
02:16PM 27.9447 -80.6197 128° Southeast 410 472 20,900 1,920 Climbing Miami Center
02:17PM 27.8681 -80.5139 129° Southeast 422 486 22,900 1,020 Climbing Miami Center
02:18PM 27.7811 -80.3961 130° Southeast 428 493 23,000  Climbing Miami Center
02:19PM 27.7044 -80.2883 129° Southeast 434 499 23,000  Level Miami Center
02:20PM 27.6297 -80.1806 128° Southeast 439 505 23,000  Level Miami Center
02:21PM 27.5486 -80.0706 130° Southeast 439 505 23,000  Level Miami Center
02:22PM 27.4717 -79.9631 129° Southeast 439 505 23,000  Level Miami Center
02:23PM 27.3967 -79.8556 128° Southeast 439 505 23,000  Level Miami Center
02:24PM 27.3278 -79.7556 128° Southeast 444 511 23,000  Level Miami Center
02:25PM 27.2464 -79.6486 131° Southeast 450 518 23,000  Level Miami Center
02:26PM 27.1608 -79.5297 129° Southeast 450 518 23,000  Level Miami Center
02:27PM 27.0833 -79.4231 129° Southeast 450 518 23,000  Level Miami Center
02:28PM 27.0058 -79.3164 129° Southeast 450 518 23,000  Level Miami Center
02:29PM 26.9306 -79.2075 128° Southeast 445 512 23,000  Level Miami Center
02:30PM 26.8547 -79.1014 129° Southeast 445 512 23,000  Level Miami Center
02:31PM 26.7708 -78.9928 131° Southeast 450 518 23,000  Level Miami Center
02:32PM 26.6950 -78.8889 129° Southeast 445 512 23,000  Level Miami Center
02:33PM 26.6150 -78.7806 130° Southeast 445 512 23,000  Level Miami Center
02:34PM 26.5392 -78.6725 128° Southeast 445 512 23,000  Level Miami Center
02:35PM 26.4608 -78.5694 130° Southeast 445 512 23,000  Level Miami Center
02:36PM 26.3972 -78.4803 129° Southeast 445 512 23,000  Level Miami Center
02:37PM 26.3169 -78.3608 127° Southeast 445 512 23,000  Level Miami Center
02:38PM 26.2386 -78.2533 129° Southeast 445 512 23,000  Level Miami Center
02:39PM 26.1603 -78.1458 129° Southeast 445 512 23,000  Level Miami Center
02:40PM 26.0839 -78.0386 128° Southeast 452 520 23,000 -300 Level Miami Center
02:41PM 26.0075 -77.9292 128° Southeast 452 520 22,400 -1,500 Descending Miami Center
02:42PM 25.9308 -77.8292 130° Southeast 445 512 20,100 -2,400 Descending Miami Center
02:43PM 25.8561 -77.7225 128° Southeast 439 505 17,600 -2,280 Descending Miami Center
02:44PM 25.7856 -77.6250 129° Southeast 424 488 15,600 -2,040 Descending Miami Center
02:45PM 25.7214 -77.5347 128° Southeast 397 457 13,600 -1,320 Descending Miami Center
02:46PM 25.6422 -77.4858 151° Southeast 342 394 13,000 -600 Descending Miami Center
02:48PM 25.5662 -77.4742 172° South  Level FlightAware Approximate
02:55PM 25.0553 -77.4500 180° South  Level FlightAware Approximate
02:56PM 25.0333 -77.4500 180° South  Level FlightAware Approximate
02:57PM 25.0390 -77.4662 180° South  Level Estimated
02:58PM 25.0390 -77.4662 180° South  Level Estimated
02:59PM 25.0390 -77.4662 180° South  Level Estimated
03:00PM 25.0390 -77.4662 180° South  Level Estimated
03:01PM 25.0390 -77.4662 180° South  Level Estimated
03:02PM 25.0390 -77.4662 180° South  Level Estimated
03:03PM 25.0390 -77.4662 180° South  Level Estimated
03:04PM 25.0390 -77.4662 180° South  Level Estimated
03:05PM 25.0390 -77.4662 180° South  Level Estimated
03:06PM 25.0390 -77.4662 180° South  Level Estimated
03:07PM 25.0390 -77.4662 180° South  Level Estimated
03:08PM 25.0390 -77.4662 180° South  Level Estimated
03:09PM 25.0390 -77.4662 180° South  Level Estimated
03:10PM 25.0390 -77.4662 180° South  Level Estimated